createdAt,value
2023-04-07T00:01:40.162Z,99.90
2023-04-07T00:04:07.061Z,99.90
2023-04-07T00:06:33.868Z,99.90
2023-04-07T00:09:00.678Z,99.90
2023-04-07T00:11:27.692Z,99.90
2023-04-07T00:13:54.618Z,99.90
2023-04-07T00:16:21.690Z,99.90
2023-04-07T00:18:48.792Z,99.90
2023-04-07T00:21:15.531Z,99.90
2023-04-07T00:23:42.914Z,99.90
2023-04-07T00:26:09.782Z,99.90
2023-04-07T00:28:36.553Z,99.90
2023-04-07T00:31:03.468Z,99.90
2023-04-07T00:33:30.684Z,99.90
2023-04-07T00:35:58.971Z,99.90
2023-04-07T00:38:25.902Z,99.90
2023-04-07T00:40:58.754Z,99.90
2023-04-07T00:43:25.854Z,99.90
2023-04-07T00:45:53.710Z,99.90
2023-04-07T00:48:21.272Z,99.90
2023-04-07T00:50:48.531Z,99.90
2023-04-07T00:53:16.105Z,99.90
2023-04-07T00:55:43.171Z,99.90
2023-04-07T00:58:09.971Z,99.90
2023-04-07T01:00:46.343Z,99.90
2023-04-07T01:03:29.164Z,99.90
2023-04-07T01:06:01.090Z,99.90
2023-04-07T01:08:35.593Z,99.90
2023-04-07T01:11:12.692Z,99.90
2023-04-07T01:13:48.248Z,99.90
2023-04-07T01:16:25.061Z,99.90
2023-04-07T01:18:56.025Z,99.90
2023-04-07T01:21:25.343Z,99.90
2023-04-07T01:24:39.550Z,99.90
2023-04-07T01:27:21.418Z,99.90
2023-04-07T01:29:50.877Z,99.90
2023-04-07T01:32:20.475Z,99.90
2023-04-07T01:34:49.825Z,99.90
2023-04-07T01:37:17.594Z,99.90
2023-04-07T01:39:44.633Z,99.90
2023-04-07T01:42:12.434Z,99.90
2023-04-07T01:44:40.851Z,99.90
2023-04-07T01:47:08.409Z,99.90
2023-04-07T01:49:36.959Z,99.90
2023-04-07T01:52:04.518Z,99.90
2023-04-07T01:54:31.845Z,99.90
2023-04-07T01:56:58.766Z,99.90
2023-04-07T01:59:25.749Z,99.90
2023-04-07T02:01:52.717Z,99.90
2023-04-07T02:04:28.805Z,99.90
2023-04-07T02:07:01.003Z,99.90
2023-04-07T02:09:31.627Z,99.90
2023-04-07T02:12:01.937Z,99.90
2023-04-07T02:14:29.613Z,99.90
2023-04-07T02:16:57.288Z,99.90
2023-04-07T02:19:24.961Z,99.90
2023-04-07T02:21:52.422Z,99.90
2023-04-07T02:24:22.547Z,99.90
2023-04-07T02:26:49.455Z,99.90
2023-04-07T02:29:16.462Z,99.90
2023-04-07T02:31:43.330Z,99.90
2023-04-07T02:34:10.895Z,99.90
2023-04-07T02:36:37.775Z,99.90
2023-04-07T02:39:04.730Z,99.90
2023-04-07T02:41:31.548Z,99.90
2023-04-07T02:43:58.612Z,99.90
2023-04-07T02:46:25.471Z,99.90
2023-04-07T02:48:52.354Z,99.90
2023-04-07T02:51:19.095Z,99.90
2023-04-07T02:53:45.794Z,99.90
2023-04-07T02:56:12.517Z,99.90
2023-04-07T02:58:39.511Z,99.90
2023-04-07T03:01:06.303Z,99.90
2023-04-07T03:03:34.323Z,99.90
2023-04-07T03:06:01.174Z,99.90
2023-04-07T03:08:27.959Z,99.90
2023-04-07T03:10:54.762Z,99.90
2023-04-07T03:13:21.688Z,99.90
2023-04-07T03:15:48.421Z,99.90
2023-04-07T03:18:15.589Z,99.90
2023-04-07T03:20:42.605Z,99.90
2023-04-07T03:23:09.342Z,99.90
2023-04-07T03:25:36.534Z,99.90
2023-04-07T03:28:03.554Z,99.90
2023-04-07T03:30:30.552Z,99.90
2023-04-07T03:32:57.542Z,99.90
2023-04-07T03:35:24.443Z,99.90
2023-04-07T03:37:51.335Z,99.90
2023-04-07T03:40:18.192Z,99.90
2023-04-07T03:42:46.705Z,99.90
2023-04-07T03:45:13.606Z,99.90
2023-04-07T03:47:40.409Z,99.90
2023-04-07T03:50:08.591Z,99.90
2023-04-07T03:52:35.325Z,99.90
2023-04-07T03:55:06.119Z,99.90
2023-04-07T03:57:32.934Z,99.90
2023-04-07T03:59:59.716Z,99.90
2023-04-07T04:02:26.591Z,99.90
2023-04-07T04:04:53.490Z,99.90
2023-04-07T04:07:20.347Z,99.90
2023-04-07T04:09:47.125Z,99.90
2023-04-07T04:12:14.912Z,99.90
2023-04-07T04:14:41.652Z,99.90
2023-04-07T04:17:10.013Z,99.90
2023-04-07T04:19:36.766Z,99.90
2023-04-07T04:22:03.593Z,99.90
2023-04-07T04:24:30.353Z,99.90
2023-04-07T04:26:57.162Z,99.90
2023-04-07T04:29:24.090Z,99.90
2023-04-07T04:31:51.091Z,99.90
2023-04-07T04:34:17.860Z,99.90
2023-04-07T04:36:44.731Z,99.90
2023-04-07T04:39:11.665Z,99.90
2023-04-07T04:41:38.498Z,99.90
2023-04-07T04:44:05.229Z,99.90
2023-04-07T04:46:33.218Z,99.90
2023-04-07T04:49:00.114Z,99.90
2023-04-07T04:51:27.292Z,99.90
2023-04-07T04:53:54.538Z,99.90
2023-04-07T04:56:21.920Z,99.90
2023-04-07T04:58:48.649Z,99.90
2023-04-07T05:01:15.671Z,99.90
2023-04-07T05:03:42.863Z,99.90
2023-04-07T05:06:09.951Z,99.90
2023-04-07T05:08:36.724Z,99.90
2023-04-07T05:11:03.462Z,99.90
2023-04-07T05:13:31.618Z,99.90
2023-04-07T05:15:58.407Z,99.90
2023-04-07T05:18:25.591Z,99.90
2023-04-07T05:20:52.835Z,99.90
2023-04-07T05:23:19.529Z,99.90
2023-04-07T05:25:46.303Z,99.90
2023-04-07T05:28:13.240Z,99.90
2023-04-07T05:30:40.113Z,99.90
2023-04-07T05:33:07.110Z,99.90
2023-04-07T05:35:34.035Z,99.90
2023-04-07T05:38:00.776Z,99.90
2023-04-07T05:40:28.734Z,99.90
2023-04-07T05:42:56.933Z,99.90
2023-04-07T05:45:23.927Z,99.90
2023-04-07T05:47:50.822Z,99.90
2023-04-07T05:50:18.228Z,99.90
2023-04-07T05:52:45.028Z,99.90
2023-04-07T05:55:11.729Z,99.90
2023-04-07T05:57:39.667Z,99.90
2023-04-07T06:00:07.087Z,99.90
2023-04-07T06:02:33.961Z,99.90
2023-04-07T06:05:00.981Z,99.90
2023-04-07T06:07:27.774Z,99.90
2023-04-07T06:09:54.664Z,99.90
2023-04-07T06:12:21.583Z,99.90
2023-04-07T06:14:54.061Z,99.90
2023-04-07T06:17:20.932Z,99.90
2023-04-07T06:19:48.253Z,99.90
2023-04-07T06:22:15.474Z,99.90
2023-04-07T06:24:42.202Z,99.90
2023-04-07T06:27:09.134Z,99.90
2023-04-07T06:29:37.328Z,99.90
2023-04-07T06:32:04.174Z,99.90
2023-04-07T06:34:31.024Z,99.90
2023-04-07T06:36:59.389Z,99.90
2023-04-07T06:39:27.546Z,99.90
2023-04-07T06:41:54.285Z,99.90
2023-04-07T06:44:21.036Z,99.90
2023-04-07T06:46:50.389Z,99.90
2023-04-07T06:49:17.361Z,99.90
2023-04-07T06:51:44.480Z,99.90
2023-04-07T06:54:14.847Z,99.90
2023-04-07T06:56:42.970Z,99.90
2023-04-07T06:59:10.144Z,99.90
2023-04-07T07:01:38.079Z,99.90
2023-04-07T07:04:06.550Z,99.90
2023-04-07T07:06:33.494Z,99.90
2023-04-07T07:09:00.959Z,99.90
2023-04-07T07:11:27.760Z,99.90
2023-04-07T07:13:54.768Z,99.90
2023-04-07T07:16:24.032Z,99.90
2023-04-07T07:18:51.480Z,99.90
2023-04-07T07:21:19.091Z,99.90
2023-04-07T07:23:46.228Z,99.90
2023-04-07T07:26:13.188Z,99.90
2023-04-07T07:28:39.916Z,99.90
2023-04-07T07:31:15.198Z,99.90
2023-04-07T07:33:46.141Z,99.90
2023-04-07T07:36:13.169Z,99.90
2023-04-07T07:38:40.532Z,99.90
2023-04-07T07:41:11.023Z,99.90
2023-04-07T07:43:38.024Z,99.90
2023-04-07T07:46:05.508Z,99.90
2023-04-07T07:48:32.522Z,99.90
2023-04-07T07:50:59.900Z,99.90
2023-04-07T07:53:26.689Z,99.90
2023-04-07T07:55:55.936Z,99.90
2023-04-07T07:58:22.810Z,99.90
2023-04-07T08:00:49.620Z,99.90
2023-04-07T08:03:17.757Z,99.90
2023-04-07T08:05:44.679Z,99.90
2023-04-07T08:08:11.547Z,99.90
2023-04-07T08:10:38.307Z,99.90
2023-04-07T08:13:05.392Z,99.90
2023-04-07T08:15:32.406Z,99.90
2023-04-07T08:18:00.946Z,99.90
2023-04-07T08:20:28.016Z,99.90
2023-04-07T08:22:54.791Z,99.90
2023-04-07T08:25:22.685Z,99.90
2023-04-07T08:27:49.586Z,99.90
2023-04-07T08:30:16.955Z,99.90
2023-04-07T08:32:45.143Z,99.90
2023-04-07T08:35:12.450Z,99.90
2023-04-07T08:37:41.358Z,99.90
2023-04-07T08:40:08.615Z,99.90
2023-04-07T08:42:38.442Z,99.90
2023-04-07T08:45:07.369Z,99.90
2023-04-07T08:47:35.620Z,99.90
2023-04-07T08:50:05.037Z,99.90
2023-04-07T08:52:40.711Z,99.90
2023-04-07T08:55:08.792Z,99.90
2023-04-07T08:57:36.721Z,99.90
2023-04-07T09:00:05.942Z,99.90
2023-04-07T09:02:40.959Z,99.90
2023-04-07T09:05:09.464Z,99.90
2023-04-07T09:07:37.928Z,99.90
2023-04-07T09:10:05.845Z,99.90
2023-04-07T09:12:33.519Z,99.90
2023-04-07T09:15:00.642Z,99.90
2023-04-07T09:17:29.002Z,99.90
2023-04-07T09:20:00.905Z,99.90
2023-04-07T09:22:36.932Z,99.90
2023-04-07T09:25:12.956Z,99.90
2023-04-07T09:27:39.852Z,99.90
2023-04-07T09:30:18.382Z,99.90
2023-04-07T09:32:45.280Z,99.90
2023-04-07T09:35:12.631Z,99.90
2023-04-07T09:37:39.412Z,99.90
2023-04-07T09:40:06.998Z,99.90
2023-04-07T09:42:36.083Z,99.90
2023-04-07T09:45:03.391Z,99.90
2023-04-07T09:47:32.698Z,99.90
2023-04-07T09:49:59.923Z,99.90
2023-04-07T09:52:50.350Z,99.90
2023-04-07T09:55:32.283Z,99.90
2023-04-07T09:58:11.762Z,99.90
2023-04-07T10:00:38.710Z,99.90
2023-04-07T10:03:07.625Z,99.90
2023-04-07T10:05:38.000Z,99.90
2023-04-07T10:08:06.668Z,99.90
2023-04-07T10:10:34.719Z,99.90
2023-04-07T10:13:04.615Z,99.90
2023-04-07T10:15:31.595Z,99.90
2023-04-07T10:17:59.753Z,99.90
2023-04-07T10:20:28.394Z,99.90
2023-04-07T10:22:58.891Z,99.90
2023-04-07T10:25:26.938Z,99.90
2023-04-07T10:28:08.407Z,99.90
2023-04-07T10:30:36.338Z,99.90
2023-04-07T10:33:03.694Z,99.90
2023-04-07T10:36:03.821Z,99.90
2023-04-07T10:38:31.768Z,99.90
2023-04-07T10:40:58.633Z,99.90
2023-04-07T10:43:39.243Z,99.90
2023-04-07T10:46:06.287Z,99.90
2023-04-07T10:48:33.551Z,99.90
2023-04-07T10:51:06.242Z,99.90
2023-04-07T10:53:34.018Z,99.90
2023-04-07T10:56:01.379Z,99.90
2023-04-07T10:58:32.769Z,99.90
2023-04-07T11:01:12.318Z,99.90
2023-04-07T11:03:42.264Z,99.90
2023-04-07T11:06:11.842Z,99.90
2023-04-07T11:08:43.358Z,99.90
2023-04-07T11:11:12.591Z,99.90
2023-04-07T11:13:50.403Z,99.90
2023-04-07T11:16:34.492Z,99.90
2023-04-07T11:19:01.668Z,99.90
2023-04-07T11:21:28.614Z,99.90
2023-04-07T11:23:55.387Z,99.90
2023-04-07T11:26:22.273Z,99.90
2023-04-07T11:28:59.249Z,99.90
2023-04-07T11:31:28.744Z,99.90
2023-04-07T11:34:00.707Z,99.90
2023-04-07T11:36:30.042Z,99.90
2023-04-07T11:38:57.813Z,99.90
2023-04-07T11:41:31.368Z,99.90
2023-04-07T11:44:09.488Z,99.90
2023-04-07T11:46:37.353Z,99.90
2023-04-07T11:49:14.722Z,99.90
2023-04-07T11:51:44.111Z,99.90
2023-04-07T11:54:11.390Z,99.90
2023-04-07T11:56:46.781Z,99.90
2023-04-07T11:59:22.990Z,99.90
2023-04-07T12:01:51.320Z,99.90
2023-04-07T12:04:19.283Z,99.90
2023-04-07T12:06:47.972Z,99.90
2023-04-07T12:09:29.704Z,99.90
2023-04-07T12:11:57.792Z,99.90
2023-04-07T12:14:28.846Z,99.90
2023-04-07T12:16:57.946Z,99.90
2023-04-07T12:19:28.219Z,99.90
2023-04-07T12:21:55.929Z,99.90
2023-04-07T12:24:23.773Z,99.90
2023-04-07T12:26:50.595Z,99.90
2023-04-07T12:29:20.032Z,99.90
2023-04-07T12:31:51.135Z,99.90
2023-04-07T12:34:19.033Z,99.90
2023-04-07T12:36:47.658Z,99.90
2023-04-07T12:39:16.070Z,99.90
2023-04-07T12:41:44.903Z,99.90
2023-04-07T12:44:11.796Z,99.90
2023-04-07T12:46:38.626Z,99.90
2023-04-07T12:49:05.895Z,99.90
2023-04-07T12:51:35.916Z,99.90
2023-04-07T12:54:02.732Z,99.90
2023-04-07T12:56:29.794Z,99.90
2023-04-07T12:58:56.669Z,99.90
2023-04-07T13:01:23.459Z,99.70
2023-04-07T13:03:51.324Z,99.80
2023-04-07T13:06:19.218Z,99.10
2023-04-07T13:08:46.163Z,98.80
2023-04-07T13:11:12.942Z,99.90
2023-04-07T13:13:39.684Z,99.90
2023-04-07T13:16:06.840Z,99.90
2023-04-07T13:18:33.698Z,99.30
2023-04-07T13:23:36.236Z,99.60
2023-04-07T13:26:09.543Z,99.90
2023-04-07T13:28:36.348Z,99.90
2023-04-07T13:31:03.101Z,99.90
2023-04-07T13:33:29.937Z,99.90
2023-04-07T13:35:56.931Z,99.90
2023-04-07T13:38:23.950Z,99.80
2023-04-07T13:40:50.798Z,99.90
2023-04-07T13:43:19.014Z,99.50
2023-04-07T13:45:46.930Z,98.00
2023-04-07T13:48:13.896Z,96.70
2023-04-07T13:50:40.997Z,97.90
2023-04-07T13:53:08.014Z,98.80
2023-04-07T13:55:35.165Z,99.90
2023-04-07T13:58:02.115Z,99.80
2023-04-07T14:00:28.837Z,99.90
2023-04-07T14:02:59.379Z,99.40
2023-04-07T14:05:26.548Z,98.10
2023-04-07T14:07:54.450Z,98.00
2023-04-07T14:10:21.643Z,98.90
2023-04-07T14:12:48.560Z,98.00
2023-04-07T14:15:17.674Z,95.90
2023-04-07T14:17:45.148Z,96.30
2023-04-07T14:20:12.120Z,95.80
2023-04-07T14:22:38.822Z,97.60
2023-04-07T14:25:06.126Z,97.80
2023-04-07T14:27:33.545Z,98.00
2023-04-07T14:30:00.481Z,97.50
2023-04-07T14:32:29.769Z,95.60
2023-04-07T14:34:59.025Z,96.30
2023-04-07T14:37:26.793Z,95.40
2023-04-07T14:40:02.661Z,95.20
2023-04-07T14:42:30.956Z,96.00
2023-04-07T14:44:59.005Z,95.10
2023-04-07T14:47:25.848Z,92.90
2023-04-07T14:49:53.744Z,95.10
2023-04-07T14:52:22.093Z,96.00
2023-04-07T14:54:49.217Z,96.50
2023-04-07T14:57:16.791Z,97.80
2023-04-07T14:59:44.211Z,96.80
2023-04-07T15:02:11.277Z,96.20
2023-04-07T15:04:38.665Z,95.70
2023-04-07T15:07:05.745Z,94.70
2023-04-07T15:09:32.529Z,94.60
2023-04-07T15:12:00.491Z,94.90
2023-04-07T15:14:27.357Z,94.90
2023-04-07T15:16:54.245Z,94.70
2023-04-07T15:19:21.061Z,93.60
2023-04-07T15:21:48.049Z,94.00
2023-04-07T15:24:16.205Z,94.30
2023-04-07T15:26:43.407Z,95.80
2023-04-07T15:29:10.153Z,96.90
2023-04-07T15:31:37.124Z,96.90
2023-04-07T15:34:04.094Z,95.20
2023-04-07T15:36:31.508Z,94.70
2023-04-07T15:39:04.339Z,94.50
2023-04-07T15:41:31.388Z,96.30
2023-04-07T15:44:00.310Z,95.60
2023-04-07T15:46:32.050Z,94.40
2023-04-07T15:48:59.692Z,93.60
2023-04-07T15:51:27.795Z,93.80
2023-04-07T15:53:54.877Z,94.20
2023-04-07T15:56:24.634Z,93.60
2023-04-07T15:58:51.733Z,94.30
2023-04-07T16:01:18.771Z,95.10
2023-04-07T16:03:45.906Z,95.10
2023-04-07T16:06:13.484Z,94.80
2023-04-07T16:08:40.240Z,94.20
2023-04-07T16:11:07.030Z,95.20
2023-04-07T16:13:33.742Z,94.90
2023-04-07T16:16:00.656Z,94.80
2023-04-07T16:18:27.500Z,96.20
2023-04-07T16:20:54.294Z,96.90
2023-04-07T16:23:21.300Z,96.30
2023-04-07T16:25:48.114Z,94.90
2023-04-07T16:28:14.908Z,92.50
2023-04-07T16:30:43.103Z,92.40
2023-04-07T16:33:09.937Z,91.90
2023-04-07T16:35:36.870Z,92.60
2023-04-07T16:38:05.984Z,92.40
2023-04-07T16:40:33.601Z,91.60
2023-04-07T16:43:00.537Z,90.60
2023-04-07T16:45:27.237Z,90.00
2023-04-07T16:47:54.192Z,91.10
2023-04-07T16:50:21.605Z,92.90
2023-04-07T16:52:48.394Z,91.50
2023-04-07T16:55:15.251Z,91.50
2023-04-07T16:57:42.084Z,91.00
2023-04-07T17:00:09.379Z,90.50
2023-04-07T17:02:36.326Z,89.00
2023-04-07T17:05:03.677Z,88.30
2023-04-07T17:07:30.473Z,91.10
2023-04-07T17:09:57.260Z,92.80
2023-04-07T17:12:24.049Z,93.00
2023-04-07T17:14:50.786Z,91.60
2023-04-07T17:17:17.608Z,92.20
2023-04-07T17:19:44.424Z,92.50
2023-04-07T17:22:11.192Z,92.90
2023-04-07T17:24:37.888Z,93.50
2023-04-07T17:27:04.592Z,93.50
2023-04-07T17:29:31.503Z,93.50
2023-04-07T17:31:58.398Z,93.80
2023-04-07T17:34:25.582Z,93.60
2023-04-07T17:36:52.507Z,93.70
2023-04-07T17:39:19.688Z,94.10
2023-04-07T17:41:47.530Z,94.50
2023-04-07T17:44:14.367Z,93.40
2023-04-07T17:46:41.267Z,93.30
2023-04-07T17:49:08.076Z,92.80
2023-04-07T17:51:34.932Z,94.10
2023-04-07T17:54:01.908Z,94.20
2023-04-07T17:56:28.838Z,93.50
2023-04-07T17:58:55.773Z,93.40
2023-04-07T18:01:22.594Z,92.90
2023-04-07T18:03:49.711Z,93.30
2023-04-07T18:06:17.877Z,93.50
2023-04-07T18:08:48.290Z,93.90
2023-04-07T18:11:16.205Z,94.30
2023-04-07T18:13:42.991Z,94.30
2023-04-07T18:16:11.826Z,94.60
2023-04-07T18:18:38.841Z,94.80
2023-04-07T18:21:08.649Z,94.50
2023-04-07T18:23:35.978Z,95.60
2023-04-07T18:26:04.930Z,95.20
2023-04-07T18:28:31.857Z,95.10
2023-04-07T18:31:04.724Z,95.00
2023-04-07T18:33:33.318Z,95.50
2023-04-07T18:36:05.086Z,95.80
2023-04-07T18:38:32.082Z,95.60
2023-04-07T18:41:00.076Z,96.50
2023-04-07T18:43:27.962Z,97.00
2023-04-07T18:45:54.782Z,97.60
2023-04-07T18:48:21.743Z,98.00
2023-04-07T18:50:52.935Z,97.60
2023-04-07T18:53:23.982Z,98.20
2023-04-07T18:55:50.940Z,99.70
2023-04-07T18:58:18.044Z,99.90
2023-04-07T19:00:44.915Z,99.90
2023-04-07T19:03:12.144Z,99.90
2023-04-07T19:05:42.471Z,99.90
2023-04-07T19:08:09.333Z,99.90
2023-04-07T19:10:36.152Z,99.90
2023-04-07T19:13:03.558Z,99.90
2023-04-07T19:15:34.481Z,99.90
2023-04-07T19:18:02.416Z,99.90
2023-04-07T19:20:36.062Z,99.90
2023-04-07T19:23:02.932Z,99.90
2023-04-07T19:25:31.182Z,99.90
2023-04-07T19:27:58.559Z,99.90
2023-04-07T19:30:25.499Z,99.90
2023-04-07T19:32:52.644Z,99.90
2023-04-07T19:35:19.702Z,99.90
2023-04-07T19:37:48.118Z,99.90
2023-04-07T19:40:15.532Z,99.90
2023-04-07T19:42:42.560Z,99.90
2023-04-07T19:45:09.957Z,99.90
2023-04-07T19:47:37.597Z,99.90
2023-04-07T19:50:05.473Z,99.90
2023-04-07T19:52:33.175Z,99.90
2023-04-07T19:55:01.070Z,99.90
2023-04-07T19:57:29.026Z,99.90
2023-04-07T19:59:56.413Z,99.90
2023-04-07T20:02:23.739Z,99.90
2023-04-07T20:04:51.099Z,99.90
2023-04-07T20:07:17.861Z,99.90
2023-04-07T20:09:44.978Z,99.90
2023-04-07T20:12:11.757Z,99.90
2023-04-07T20:14:38.949Z,99.90
2023-04-07T20:17:05.838Z,99.90
2023-04-07T20:19:33.817Z,99.90
2023-04-07T20:22:00.942Z,99.90
2023-04-07T20:24:28.471Z,99.90
2023-04-07T20:26:55.959Z,99.90
2023-04-07T20:29:22.704Z,99.90
2023-04-07T20:31:49.539Z,99.90
2023-04-07T20:34:16.681Z,99.90
2023-04-07T20:36:43.598Z,99.90
2023-04-07T20:39:10.740Z,99.90
2023-04-07T20:41:37.789Z,99.90
2023-04-07T20:44:04.708Z,99.90
2023-04-07T20:46:33.669Z,99.90
2023-04-07T20:49:00.667Z,99.90
2023-04-07T20:51:29.913Z,99.90
2023-04-07T20:53:57.096Z,99.90
2023-04-07T20:56:24.048Z,99.90
2023-04-07T20:58:51.363Z,99.90
2023-04-07T21:01:18.351Z,99.90
2023-04-07T21:03:45.478Z,99.90
2023-04-07T21:06:12.325Z,99.90
2023-04-07T21:08:39.497Z,99.90
2023-04-07T21:11:06.464Z,99.90
2023-04-07T21:13:34.014Z,99.90
2023-04-07T21:16:03.314Z,99.90
2023-04-07T21:18:30.725Z,99.90
2023-04-07T21:20:59.032Z,99.90
2023-04-07T21:23:26.039Z,99.90
2023-04-07T21:25:52.996Z,99.90
2023-04-07T21:28:19.732Z,99.90
2023-04-07T21:30:46.558Z,99.90
2023-04-07T21:33:14.285Z,99.90
2023-04-07T21:35:41.244Z,99.90
2023-04-07T21:38:08.100Z,99.90
2023-04-07T21:40:34.843Z,99.90
2023-04-07T21:43:02.162Z,99.90
2023-04-07T21:45:29.688Z,99.90
2023-04-07T21:47:56.719Z,99.90
2023-04-07T21:50:24.070Z,99.90
2023-04-07T21:52:51.790Z,99.90
2023-04-07T21:55:19.064Z,99.90
2023-04-07T21:57:45.930Z,99.90
2023-04-07T22:00:14.039Z,99.90
2023-04-07T22:02:41.429Z,99.90
2023-04-07T22:05:08.835Z,99.90
2023-04-07T22:07:36.453Z,99.90
2023-04-07T22:10:03.929Z,99.90
2023-04-07T22:12:30.735Z,99.90
2023-04-07T22:14:57.437Z,99.90
2023-04-07T22:17:24.394Z,99.90
2023-04-07T22:19:51.603Z,99.90
2023-04-07T22:22:20.218Z,99.90
2023-04-07T22:24:47.280Z,99.90
2023-04-07T22:27:14.061Z,99.90
2023-04-07T22:29:40.761Z,99.90
2023-04-07T22:32:07.528Z,99.90
2023-04-07T22:34:34.347Z,99.90
2023-04-07T22:37:01.152Z,99.90
2023-04-07T22:39:27.994Z,99.90
2023-04-07T22:41:54.690Z,99.90
2023-04-07T22:44:21.428Z,99.90
2023-04-07T22:46:48.272Z,99.90
2023-04-07T22:49:15.021Z,99.90
2023-04-07T22:51:41.861Z,99.90
2023-04-07T22:54:08.703Z,99.90
2023-04-07T22:56:35.466Z,99.90
2023-04-07T22:59:05.524Z,99.90
2023-04-07T23:01:33.317Z,99.90
2023-04-07T23:04:00.659Z,99.90
2023-04-07T23:06:31.478Z,99.90
2023-04-07T23:08:58.226Z,99.90
2023-04-07T23:11:25.031Z,99.90
2023-04-07T23:13:52.404Z,99.90
2023-04-07T23:16:19.214Z,99.90
2023-04-07T23:18:46.219Z,99.90
2023-04-07T23:21:13.781Z,99.90
2023-04-07T23:23:40.529Z,99.90
2023-04-07T23:26:07.338Z,99.90
2023-04-07T23:28:34.110Z,99.90
2023-04-07T23:31:02.109Z,99.90
2023-04-07T23:33:31.757Z,99.90
2023-04-07T23:35:58.896Z,99.90
2023-04-07T23:38:26.153Z,99.90
2023-04-07T23:40:53.328Z,99.90
2023-04-07T23:43:20.505Z,99.90
2023-04-07T23:45:47.439Z,99.90
2023-04-07T23:48:16.105Z,99.90
2023-04-07T23:50:43.046Z,99.90
2023-04-07T23:53:09.907Z,99.90
2023-04-07T23:55:36.849Z,99.90
2023-04-07T23:58:03.635Z,99.90
